Time;durP1;ratioP1;P1;durP2;ratioP2;P2;SDS_P1;SDS_P2;PMS_P1;PMS_P2;Temp;Humidity;BMP_temperature;BMP_pressure;BME280_temperature;BME280_humidity;BME280_pressure;Samples;Min_cycle;Max_cycle;Signal;HPM_P1;HPM_P2
2022/08/21 00:01:26;;;;;;;12.63;8.43;;;;;;;;;;4993725;28;20566;-51
2022/08/21 00:03:53;;;;;;;12.93;7.70;;;;;;;;;;4995906;28;20546;-50
2022/08/21 00:06:19;;;;;;;15.43;9.07;;;;;;;;;;4995694;28;20906;-50
2022/08/21 00:08:45;;;;;;;10.43;7.37;;;;;;;;;;4995299;28;20921;-51
2022/08/21 00:11:11;;;;;;;11.40;8.30;;;;;;;;;;4995625;28;20506;-52
2022/08/21 00:13:37;;;;;;;14.53;9.43;;;;;;;;;;4993757;28;20430;-51
2022/08/21 00:16:04;;;;;;;11.07;7.87;;;;;;;;;;4995679;28;20563;-51
2022/08/21 00:18:30;;;;;;;10.73;7.33;;;;;;;;;;4994407;28;20444;-51
2022/08/21 00:20:56;;;;;;;8.50;6.70;;;;;;;;;;4995519;28;20923;-51
2022/08/21 00:23:22;;;;;;;11.17;7.90;;;;;;;;;;4995418;28;20504;-51
2022/08/21 00:25:48;;;;;;;14.83;7.53;;;;;;;;;;4995377;28;20456;-52
2022/08/21 00:28:15;;;;;;;11.67;7.57;;;;;;;;;;4995147;28;20381;-50
2022/08/21 00:30:41;;;;;;;14.10;7.50;;;;;;;;;;4995339;28;20400;-51
2022/08/21 00:33:08;;;;;;;10.87;7.93;;;;;;;;;;4995298;28;20917;-52
2022/08/21 00:35:36;;;;;;;12.90;7.37;;;;;;;;;;4995109;28;20460;-51
2022/08/21 00:38:02;;;;;;;9.90;7.37;;;;;;;;;;4995006;28;20516;-51
2022/08/21 00:40:34;;;;;;;16.50;7.93;;;;;;;;;;4994300;28;20396;-51
2022/08/21 00:43:02;;;;;;;13.77;7.80;;;;;;;;;;4995055;28;20863;-51
2022/08/21 00:45:29;;;;;;;13.13;8.10;;;;;;;;;;4993150;28;20403;-52
2022/08/21 00:47:56;;;;;;;11.30;7.17;;;;;;;;;;4994854;28;20446;-51
2022/08/21 00:50:22;;;;;;;13.40;8.30;;;;;;;;;;4994781;28;20741;-52
2022/08/21 00:52:50;;;;;;;14.93;7.70;;;;;;;;;;4994915;28;20417;-51
2022/08/21 00:55:16;;;;;;;16.00;8.00;;;;;;;;;;4994776;28;20899;-51
2022/08/21 00:57:50;;;;;;;12.67;7.90;;;;;;;;;;4994780;28;20836;-51
2022/08/21 01:00:18;;;;;;;11.03;7.40;;;;;;;;;;4994512;28;20472;-52
2022/08/21 01:02:45;;;;;;;12.13;7.00;;;;;;;;;;4994704;28;20399;-51
2022/08/21 01:05:11;;;;;;;11.60;8.17;;;;;;;;;;4994687;28;20407;-51
2022/08/21 01:07:37;;;;;;;13.27;6.93;;;;;;;;;;4994600;28;20440;-51
2022/08/21 01:10:05;;;;;;;15.90;7.27;;;;;;;;;;4994257;28;20452;-51
2022/08/21 01:12:31;;;;;;;12.97;6.70;;;;;;;;;;4994625;28;20387;-51
2022/08/21 01:14:58;;;;;;;9.77;6.20;;;;;;;;;;4993351;28;20449;-51
2022/08/21 01:17:24;;;;;;;14.40;7.10;;;;;;;;;;4994492;28;20793;-51
2022/08/21 01:19:50;;;;;;;9.43;6.40;;;;;;;;;;4994174;28;20434;-51
2022/08/21 01:22:16;;;;;;;9.17;6.77;;;;;;;;;;4994260;28;20390;-51
2022/08/21 01:24:42;;;;;;;19.10;6.67;;;;;;;;;;4994234;28;20407;-52
2022/08/21 01:27:08;;;;;;;13.83;7.10;;;;;;;;;;4994249;28;20485;-51
2022/08/21 01:29:37;;;;;;;9.73;6.50;;;;;;;;;;4993983;28;20496;-50
2022/08/21 01:32:05;;;;;;;14.13;6.23;;;;;;;;;;4994202;28;20377;-51
2022/08/21 01:34:31;;;;;;;9.70;6.43;;;;;;;;;;4994188;28;20411;-51
2022/08/21 01:36:57;;;;;;;13.10;6.70;;;;;;;;;;4993913;28;20455;-51
2022/08/21 01:39:24;;;;;;;15.23;6.33;;;;;;;;;;4993823;28;20404;-51
2022/08/21 01:41:49;;;;;;;12.50;6.50;;;;;;;;;;4993944;28;20441;-52
2022/08/21 01:44:16;;;;;;;8.50;6.60;;;;;;;;;;4993989;28;20440;-51
2022/08/21 01:46:42;;;;;;;9.00;7.43;;;;;;;;;;4991985;28;20498;-51
2022/08/21 01:49:08;;;;;;;11.43;7.33;;;;;;;;;;4993601;28;20939;-52
2022/08/21 01:51:34;;;;;;;11.83;7.50;;;;;;;;;;4993660;28;20415;-51
2022/08/21 01:54:00;;;;;;;9.73;6.83;;;;;;;;;;4993268;28;20482;-51
2022/08/21 01:56:27;;;;;;;10.77;7.13;;;;;;;;;;4993584;28;20463;-52
2022/08/21 01:58:53;;;;;;;17.93;7.87;;;;;;;;;;4993247;28;20445;-50
2022/08/21 02:01:19;;;;;;;10.47;7.80;;;;;;;;;;4993439;28;20375;-51
2022/08/21 02:03:45;;;;;;;10.43;7.70;;;;;;;;;;4993580;28;20403;-52
2022/08/21 02:06:17;;;;;;;12.90;8.40;;;;;;;;;;4993580;28;20759;-51
2022/08/21 02:08:43;;;;;;;19.57;8.50;;;;;;;;;;4993208;28;20408;-51
2022/08/21 02:11:09;;;;;;;13.10;7.80;;;;;;;;;;4993432;28;20472;-51
2022/08/21 02:13:35;;;;;;;9.53;8.00;;;;;;;;;;4993262;28;20903;-50
2022/08/21 02:16:01;;;;;;;16.83;7.33;;;;;;;;;;4991949;28;20434;-51
2022/08/21 02:18:27;;;;;;;12.53;8.60;;;;;;;;;;4993283;28;20430;-50
2022/08/21 02:20:53;;;;;;;10.50;7.90;;;;;;;;;;4993094;28;20391;-51
2022/08/21 02:23:19;;;;;;;22.20;8.47;;;;;;;;;;4993289;28;20424;-51
2022/08/21 02:25:45;;;;;;;11.80;7.63;;;;;;;;;;4993129;28;20380;-51
2022/08/21 02:28:12;;;;;;;9.43;7.53;;;;;;;;;;4992955;28;20772;-51
2022/08/21 02:30:41;;;;;;;9.20;7.60;;;;;;;;;;4992904;28;20841;-51
2022/08/21 02:33:09;;;;;;;10.37;7.10;;;;;;;;;;4993068;28;20471;-50
2022/08/21 02:35:36;;;;;;;9.87;7.80;;;;;;;;;;4992959;28;20413;-51
2022/08/21 02:38:04;;;;;;;10.73;7.80;;;;;;;;;;4992873;28;21034;-51
2022/08/21 02:40:32;;;;;;;10.57;7.43;;;;;;;;;;4992718;28;20414;-51
2022/08/21 02:42:59;;;;;;;11.53;8.40;;;;;;;;;;4992811;28;20795;-52
2022/08/21 02:45:27;;;;;;;8.57;6.90;;;;;;;;;;4991098;28;20410;-51
2022/08/21 02:47:55;;;;;;;11.10;7.00;;;;;;;;;;4991327;28;20431;-51
2022/08/21 02:50:27;;;;;;;12.60;7.40;;;;;;;;;;4992535;28;20424;-51
2022/08/21 02:52:54;;;;;;;10.20;8.03;;;;;;;;;;4992882;28;20488;-51
2022/08/21 02:55:20;;;;;;;11.23;7.77;;;;;;;;;;4992695;28;20384;-51
2022/08/21 02:57:46;;;;;;;7.53;6.80;;;;;;;;;;4992594;28;20426;-50
2022/08/21 03:00:13;;;;;;;10.60;7.20;;;;;;;;;;4992393;28;20922;-52
2022/08/21 03:02:39;;;;;;;14.27;8.00;;;;;;;;;;4992301;28;20746;-52
2022/08/21 03:05:06;;;;;;;11.17;8.73;;;;;;;;;;4992277;28;20376;-50
2022/08/21 03:07:33;;;;;;;13.20;7.10;;;;;;;;;;4992563;28;20406;-51
2022/08/21 03:09:59;;;;;;;14.53;9.33;;;;;;;;;;4992403;28;20438;-51
2022/08/21 03:12:25;;;;;;;15.97;9.47;;;;;;;;;;4992567;28;20402;-52
2022/08/21 03:14:51;;;;;;;12.90;9.80;;;;;;;;;;4991735;28;20417;-51
2022/08/21 03:17:17;;;;;;;12.53;8.70;;;;;;;;;;4992269;28;20470;-51
2022/08/21 03:19:43;;;;;;;10.67;8.43;;;;;;;;;;4992185;28;20409;-51
2022/08/21 03:22:09;;;;;;;10.60;8.63;;;;;;;;;;4992346;28;20384;-51
2022/08/21 03:24:35;;;;;;;15.67;9.67;;;;;;;;;;4992401;28;20384;-52
2022/08/21 03:27:01;;;;;;;18.23;8.93;;;;;;;;;;4992386;28;20389;-52
2022/08/21 03:29:27;;;;;;;10.90;8.07;;;;;;;;;;4992168;28;20402;-50
2022/08/21 03:31:56;;;;;;;12.97;9.83;;;;;;;;;;4992323;28;20437;-51
2022/08/21 03:34:22;;;;;;;14.73;8.70;;;;;;;;;;4992360;28;20412;-51
2022/08/21 03:36:48;;;;;;;11.73;8.77;;;;;;;;;;4992202;28;20970;-51
2022/08/21 03:39:15;;;;;;;17.93;10.53;;;;;;;;;;4992124;28;20402;-52
2022/08/21 03:41:41;;;;;;;13.80;10.50;;;;;;;;;;4992314;28;20375;-52
2022/08/21 03:44:07;;;;;;;18.47;11.53;;;;;;;;;;4991745;28;20407;-51
2022/08/21 03:46:33;;;;;;;11.13;9.43;;;;;;;;;;4991642;28;20416;-51
2022/08/21 03:48:59;;;;;;;17.67;9.60;;;;;;;;;;4991893;28;20948;-51
2022/08/21 03:51:25;;;;;;;11.30;9.90;;;;;;;;;;4992217;28;20417;-52
2022/08/21 03:53:51;;;;;;;16.30;9.80;;;;;;;;;;4992249;28;20783;-51
2022/08/21 03:56:17;;;;;;;19.57;9.73;;;;;;;;;;4992085;28;20480;-51
2022/08/21 03:58:44;;;;;;;15.43;9.70;;;;;;;;;;4991727;28;20473;-52
2022/08/21 04:01:10;;;;;;;15.77;10.77;;;;;;;;;;4991771;28;20932;-52
2022/08/21 04:03:37;;;;;;;18.13;13.10;;;;;;;;;;4992134;28;20398;-52
2022/08/21 04:06:03;;;;;;;15.03;11.50;;;;;;;;;;4992021;28;20433;-52
2022/08/21 04:08:30;;;;;;;20.47;11.27;;;;;;;;;;4991883;28;20785;-52
2022/08/21 04:10:57;;;;;;;13.80;10.67;;;;;;;;;;4991889;28;20407;-52
2022/08/21 04:13:24;;;;;;;20.70;10.20;;;;;;;;;;4992036;28;20486;-51
2022/08/21 04:15:50;;;;;;;13.10;10.87;;;;;;;;;;4991432;28;20508;-51
2022/08/21 04:18:16;;;;;;;17.53;10.70;;;;;;;;;;4995357;28;20438;-52
2022/08/21 04:20:43;;;;;;;12.00;9.03;;;;;;;;;;4995346;28;20407;-51
2022/08/21 04:23:09;;;;;;;15.03;10.87;;;;;;;;;;4995530;28;20408;-51
2022/08/21 04:25:35;;;;;;;14.53;10.07;;;;;;;;;;4995388;28;20407;-50
2022/08/21 04:28:01;;;;;;;11.47;8.30;;;;;;;;;;4995271;28;20892;-50
2022/08/21 04:30:27;;;;;;;16.90;10.10;;;;;;;;;;4995060;28;20383;-51
2022/08/21 04:32:53;;;;;;;12.13;9.17;;;;;;;;;;4995272;28;20453;-51
2022/08/21 04:35:21;;;;;;;17.93;10.90;;;;;;;;;;4995288;28;20901;-51
2022/08/21 04:37:47;;;;;;;17.10;11.70;;;;;;;;;;4995097;28;20438;-51
2022/08/21 04:40:15;;;;;;;13.93;10.87;;;;;;;;;;4994933;28;20422;-50
2022/08/21 04:42:44;;;;;;;20.60;12.10;;;;;;;;;;4995123;28;20375;-51
2022/08/21 04:45:10;;;;;;;29.77;12.73;;;;;;;;;;4993042;28;20462;-50
2022/08/21 04:47:36;;;;;;;21.77;13.80;;;;;;;;;;4994990;28;20386;-52
2022/08/21 04:50:02;;;;;;;18.80;11.73;;;;;;;;;;4994678;28;20430;-51
2022/08/21 04:52:28;;;;;;;24.33;15.80;;;;;;;;;;4994894;28;20404;-51
2022/08/21 04:54:54;;;;;;;26.83;14.97;;;;;;;;;;4994781;28;21038;-50
2022/08/21 04:57:20;;;;;;;30.60;15.53;;;;;;;;;;4994245;28;20462;-51
2022/08/21 04:59:51;;;;;;;35.00;16.73;;;;;;;;;;4993915;28;20445;-51
2022/08/21 05:02:17;;;;;;;25.67;15.87;;;;;;;;;;4994193;28;20405;-51
2022/08/21 05:04:49;;;;;;;27.53;14.20;;;;;;;;;;4994693;28;20397;-51
2022/08/21 05:07:16;;;;;;;26.80;12.83;;;;;;;;;;4994627;28;20424;-51
2022/08/21 05:09:43;;;;;;;19.73;13.27;;;;;;;;;;4994363;28;20527;-50
2022/08/21 05:12:10;;;;;;;17.67;12.47;;;;;;;;;;4994399;28;20914;-51
2022/08/21 05:14:35;;;;;;;15.40;12.00;;;;;;;;;;4992685;28;20758;-52
2022/08/21 05:17:01;;;;;;;18.63;11.70;;;;;;;;;;4992990;28;20498;-52
2022/08/21 05:19:27;;;;;;;14.53;12.23;;;;;;;;;;4993538;28;20502;-51
2022/08/21 05:21:54;;;;;;;20.20;11.87;;;;;;;;;;4993638;28;20877;-53
2022/08/21 05:24:20;;;;;;;13.90;11.00;;;;;;;;;;4993820;28;20428;-53
2022/08/21 05:26:46;;;;;;;17.67;11.83;;;;;;;;;;4992698;28;20404;-54
2022/08/21 05:29:12;;;;;;;18.97;11.70;;;;;;;;;;4993241;28;20498;-54
2022/08/21 05:31:38;;;;;;;18.87;10.50;;;;;;;;;;4993729;28;20489;-53
2022/08/21 05:34:04;;;;;;;12.13;10.63;;;;;;;;;;4994126;28;20836;-53
2022/08/21 05:36:31;;;;;;;11.87;10.00;;;;;;;;;;4994023;28;20459;-54
2022/08/21 05:38:57;;;;;;;14.83;10.57;;;;;;;;;;4993706;28;20410;-52
2022/08/21 05:41:23;;;;;;;15.07;11.70;;;;;;;;;;4994026;28;20375;-54
2022/08/21 05:43:49;;;;;;;13.77;10.23;;;;;;;;;;4992474;28;20405;-53
2022/08/21 05:46:15;;;;;;;14.80;9.70;;;;;;;;;;4993865;28;20389;-53
2022/08/21 05:48:41;;;;;;;11.97;9.70;;;;;;;;;;4992392;28;20436;-53
2022/08/21 05:51:09;;;;;;;10.97;9.10;;;;;;;;;;4988546;28;20780;-52
2022/08/21 05:53:36;;;;;;;12.97;9.90;;;;;;;;;;4993687;28;20379;-53
2022/08/21 05:56:03;;;;;;;8.97;8.07;;;;;;;;;;4993535;28;20395;-53
2022/08/21 05:58:30;;;;;;;15.53;7.60;;;;;;;;;;4993391;28;20423;-52
2022/08/21 06:00:56;;;;;;;12.27;7.70;;;;;;;;;;4993094;28;20407;-52
2022/08/21 06:03:27;;;;;;;14.03;8.40;;;;;;;;;;4993992;28;20404;-48
2022/08/21 06:05:54;;;;;;;10.33;7.00;;;;;;;;;;4991312;28;20373;-53
2022/08/21 06:08:21;;;;;;;10.40;8.10;;;;;;;;;;4991741;28;20430;-50
2022/08/21 06:10:47;;;;;;;9.63;7.43;;;;;;;;;;4991862;28;20380;-47
2022/08/21 06:13:14;;;;;;;11.03;7.77;;;;;;;;;;4991981;28;20846;-46
2022/08/21 06:15:40;;;;;;;8.20;7.47;;;;;;;;;;4993144;28;20386;-48
2022/08/21 06:18:06;;;;;;;10.53;8.63;;;;;;;;;;4993092;28;20525;-48
2022/08/21 06:20:32;;;;;;;8.73;7.70;;;;;;;;;;4993142;28;20463;-48
2022/08/21 06:22:58;;;;;;;13.80;7.13;;;;;;;;;;4993139;28;20406;-47
2022/08/21 06:25:24;;;;;;;16.90;7.70;;;;;;;;;;4993220;28;20423;-47
2022/08/21 06:27:51;;;;;;;11.70;7.10;;;;;;;;;;4991945;28;20433;-49
2022/08/21 06:30:17;;;;;;;12.47;8.00;;;;;;;;;;4992243;28;20517;-48
2022/08/21 06:32:43;;;;;;;8.43;7.10;;;;;;;;;;4993141;28;20823;-49
2022/08/21 06:35:09;;;;;;;9.43;8.00;;;;;;;;;;4993002;28;20862;-47
2022/08/21 06:37:35;;;;;;;8.70;7.17;;;;;;;;;;4992799;28;20539;-48
2022/08/21 06:40:01;;;;;;;8.00;6.73;;;;;;;;;;4992143;28;20525;-49
2022/08/21 06:42:27;;;;;;;12.77;8.20;;;;;;;;;;4992929;28;20380;-49
2022/08/21 06:44:53;;;;;;;10.73;7.70;;;;;;;;;;4992780;28;20720;-49
2022/08/21 06:47:19;;;;;;;16.53;8.30;;;;;;;;;;4992879;28;20390;-47
2022/08/21 06:49:45;;;;;;;14.20;8.63;;;;;;;;;;4992484;28;20430;-48
2022/08/21 06:52:12;;;;;;;8.33;7.53;;;;;;;;;;4992736;28;20414;-49
2022/08/21 06:54:39;;;;;;;17.73;8.77;;;;;;;;;;4992717;28;20422;-50
2022/08/21 06:57:05;;;;;;;9.67;8.77;;;;;;;;;;4992613;28;20509;-50
2022/08/21 06:59:31;;;;;;;19.23;9.40;;;;;;;;;;4990403;28;20462;-50
2022/08/21 07:01:58;;;;;;;16.77;9.07;;;;;;;;;;4992676;28;20377;-52
2022/08/21 07:04:24;;;;;;;11.00;9.03;;;;;;;;;;4992602;28;20451;-49
2022/08/21 07:06:50;;;;;;;17.30;10.87;;;;;;;;;;4992448;28;20408;-50
2022/08/21 07:09:16;;;;;;;11.77;8.53;;;;;;;;;;4992243;28;20832;-48
2022/08/21 07:11:42;;;;;;;14.07;9.00;;;;;;;;;;4992687;28;20833;-50
2022/08/21 07:14:08;;;;;;;13.63;9.03;;;;;;;;;;4992515;28;20411;-50
2022/08/21 07:16:34;;;;;;;12.63;9.93;;;;;;;;;;4992364;28;20471;-51
2022/08/21 07:19:00;;;;;;;13.23;9.57;;;;;;;;;;4992254;28;20916;-48
2022/08/21 07:21:26;;;;;;;14.80;8.33;;;;;;;;;;4992376;28;20435;-49
2022/08/21 07:23:52;;;;;;;20.20;8.23;;;;;;;;;;4992399;28;20436;-49
2022/08/21 07:26:20;;;;;;;9.63;7.60;;;;;;;;;;4992362;28;20418;-48
2022/08/21 07:28:47;;;;;;;12.83;8.93;;;;;;;;;;4991048;28;20446;-47
2022/08/21 07:31:14;;;;;;;19.23;9.93;;;;;;;;;;4991660;28;20444;-49
2022/08/21 07:33:41;;;;;;;14.40;9.43;;;;;;;;;;4992332;28;20487;-50
2022/08/21 07:36:07;;;;;;;15.87;8.77;;;;;;;;;;4992293;28;20817;-48
2022/08/21 07:38:33;;;;;;;15.10;7.30;;;;;;;;;;4992109;28;20431;-49
2022/08/21 07:41:01;;;;;;;16.33;6.50;;;;;;;;;;4992439;28;20463;-49
2022/08/21 07:43:27;;;;;;;10.80;7.20;;;;;;;;;;4992180;28;20437;-50
2022/08/21 07:45:57;;;;;;;9.50;6.60;;;;;;;;;;4992205;28;20406;-51
2022/08/21 07:48:23;;;;;;;10.23;7.07;;;;;;;;;;4992013;28;20418;-50
2022/08/21 07:50:49;;;;;;;12.83;6.80;;;;;;;;;;4992713;28;20423;-50
2022/08/21 07:53:16;;;;;;;11.60;7.33;;;;;;;;;;4995937;28;20411;-50
2022/08/21 07:55:42;;;;;;;8.87;6.10;;;;;;;;;;4996120;28;20403;-50
2022/08/21 07:58:08;;;;;;;9.47;5.83;;;;;;;;;;4996112;28;20793;-47
2022/08/21 08:00:34;;;;;;;12.90;5.50;;;;;;;;;;4993881;28;20538;-50
2022/08/21 08:03:00;;;;;;;14.20;4.80;;;;;;;;;;4995685;28;20407;-49
2022/08/21 08:05:28;;;;;;;11.33;5.70;;;;;;;;;;4996037;28;20403;-51
2022/08/21 08:07:55;;;;;;;11.10;5.33;;;;;;;;;;4995729;28;20915;-50
2022/08/21 08:10:21;;;;;;;6.90;4.40;;;;;;;;;;4995425;28;20455;-49
2022/08/21 08:12:48;;;;;;;7.67;4.00;;;;;;;;;;4995649;28;20414;-47
2022/08/21 08:15:16;;;;;;;11.13;4.33;;;;;;;;;;4993672;28;20439;-48
2022/08/21 08:17:42;;;;;;;10.20;4.37;;;;;;;;;;4995529;28;20459;-49
2022/08/21 08:20:09;;;;;;;7.80;4.57;;;;;;;;;;4995328;28;20986;-48
2022/08/21 08:22:37;;;;;;;11.00;3.70;;;;;;;;;;4995715;28;20450;-48
2022/08/21 08:25:04;;;;;;;6.63;3.87;;;;;;;;;;4995417;28;20400;-48
2022/08/21 08:27:30;;;;;;;4.27;3.47;;;;;;;;;;4995355;28;20490;-47
2022/08/21 08:29:56;;;;;;;4.07;3.10;;;;;;;;;;4993751;28;20463;-48
2022/08/21 08:32:22;;;;;;;7.77;3.33;;;;;;;;;;4995238;28;20404;-48
2022/08/21 08:34:49;;;;;;;7.30;3.30;;;;;;;;;;4995151;28;20427;-50
2022/08/21 08:37:16;;;;;;;5.90;3.57;;;;;;;;;;4995220;28;20463;-48
2022/08/21 08:39:42;;;;;;;5.20;2.60;;;;;;;;;;4994887;28;20423;-48
2022/08/21 08:42:21;;;;;;;5.50;3.73;;;;;;;;;;4995090;28;20400;-48
2022/08/21 08:44:47;;;;;;;5.83;2.77;;;;;;;;;;4994915;28;20408;-51
2022/08/21 08:47:15;;;;;;;5.77;2.40;;;;;;;;;;4994945;28;20776;-49
2022/08/21 08:49:47;;;;;;;2.30;2.10;;;;;;;;;;4994713;28;20432;-49
2022/08/21 08:52:30;;;;;;;8.70;3.30;;;;;;;;;;4994892;28;20400;-50
2022/08/21 08:55:02;;;;;;;7.10;2.47;;;;;;;;;;4994729;28;20404;-49
2022/08/21 08:57:29;;;;;;;5.80;2.20;;;;;;;;;;4994769;28;20455;-50
2022/08/21 08:59:58;;;;;;;5.53;2.47;;;;;;;;;;4993120;28;20478;-52
2022/08/21 09:02:27;;;;;;;6.97;2.80;;;;;;;;;;4993566;28;21018;-48
2022/08/21 09:04:53;;;;;;;4.50;2.30;;;;;;;;;;4994637;28;20896;-47
2022/08/21 09:07:38;;;;;;;5.77;2.57;;;;;;;;;;4994590;28;20414;-47
2022/08/21 09:10:25;;;;;;;6.67;2.83;;;;;;;;;;4994242;28;20978;-50
2022/08/21 09:12:57;;;;;;;5.67;2.03;;;;;;;;;;4994362;28;20479;-51
2022/08/21 09:15:26;;;;;;;4.80;2.20;;;;;;;;;;4994490;28;20404;-51
2022/08/21 09:17:58;;;;;;;6.30;2.10;;;;;;;;;;4994309;28;20976;-49
2022/08/21 09:20:33;;;;;;;2.60;1.60;;;;;;;;;;4994194;28;20400;-48
2022/08/21 09:23:02;;;;;;;6.30;2.50;;;;;;;;;;4994458;28;20478;-48
2022/08/21 09:25:31;;;;;;;5.00;2.30;;;;;;;;;;4992770;28;20423;-50
2022/08/21 09:27:57;;;;;;;6.20;2.23;;;;;;;;;;4994174;28;20440;-49
2022/08/21 09:30:27;;;;;;;5.20;2.33;;;;;;;;;;4991868;28;20484;-48
2022/08/21 09:32:53;;;;;;;3.70;2.37;;;;;;;;;;4992897;28;20432;-50
2022/08/21 09:35:21;;;;;;;5.60;2.20;;;;;;;;;;4994018;28;20458;-48
2022/08/21 09:37:51;;;;;;;3.60;2.10;;;;;;;;;;4993992;28;20459;-49
2022/08/21 09:40:20;;;;;;;2.87;1.90;;;;;;;;;;4993637;28;20566;-52
2022/08/21 09:42:54;;;;;;;4.70;1.80;;;;;;;;;;4993871;28;20404;-51
2022/08/21 09:45:20;;;;;;;5.37;2.67;;;;;;;;;;4993904;28;20401;-49
2022/08/21 09:47:46;;;;;;;4.03;2.07;;;;;;;;;;4994031;28;20919;-48
2022/08/21 09:50:23;;;;;;;5.70;1.67;;;;;;;;;;4993482;28;20431;-49
2022/08/21 09:52:52;;;;;;;4.53;2.10;;;;;;;;;;4993843;28;20554;-48
2022/08/21 09:58:20;;;;;;;4.53;2.50;;;;;;;;;;4993593;28;20474;-48
2022/08/21 10:00:56;;;;;;;5.20;2.57;;;;;;;;;;4992367;28;20427;-49
2022/08/21 10:03:24;;;;;;;2.80;2.13;;;;;;;;;;4992778;28;20817;-50
2022/08/21 10:05:54;;;;;;;4.03;2.40;;;;;;;;;;4993272;28;20413;-48
2022/08/21 10:08:21;;;;;;;4.67;2.23;;;;;;;;;;4993493;28;20427;-49
2022/08/21 10:10:52;;;;;;;4.10;2.27;;;;;;;;;;4993378;28;20471;-49
2022/08/21 10:13:20;;;;;;;4.43;2.10;;;;;;;;;;4993020;28;20436;-53
2022/08/21 10:16:09;;;;;;;9.07;2.30;;;;;;;;;;4993138;28;20396;-49
2022/08/21 10:18:43;;;;;;;6.80;2.07;;;;;;;;;;4992883;28;20419;-52
2022/08/21 10:21:08;;;;;;;2.90;2.03;;;;;;;;;;4993181;28;20454;-51
2022/08/21 10:23:40;;;;;;;5.47;1.70;;;;;;;;;;4993046;28;20404;-53
2022/08/21 10:26:11;;;;;;;2.70;1.87;;;;;;;;;;4992875;28;20778;-49
2022/08/21 10:28:40;;;;;;;7.73;1.90;;;;;;;;;;4992719;28;20420;-52
2022/08/21 10:31:18;;;;;;;9.30;2.70;;;;;;;;;;4991154;28;20429;-49
2022/08/21 10:34:05;;;;;;;4.90;2.20;;;;;;;;;;4992437;28;20494;-49
2022/08/21 10:36:38;;;;;;;5.47;1.97;;;;;;;;;;4992745;28;20947;-49
2022/08/21 10:39:23;;;;;;;9.70;1.90;;;;;;;;;;4992406;28;20424;-54
2022/08/21 10:41:54;;;;;;;9.40;2.20;;;;;;;;;;4992846;28;20392;-50
2022/08/21 10:44:29;;;;;;;4.20;1.70;;;;;;;;;;4992860;28;20938;-52
2022/08/21 10:46:56;;;;;;;2.60;1.70;;;;;;;;;;4992703;28;20403;-49
2022/08/21 10:49:40;;;;;;;2.87;1.50;;;;;;;;;;4992919;28;20454;-50
2022/08/21 10:52:25;;;;;;;3.73;1.60;;;;;;;;;;4992694;28;20411;-49
2022/08/21 10:54:53;;;;;;;5.17;1.70;;;;;;;;;;4992570;28;20402;-51
2022/08/21 10:57:31;;;;;;;2.63;1.20;;;;;;;;;;4992596;28;20460;-53
2022/08/21 11:00:01;;;;;;;2.00;1.37;;;;;;;;;;4991273;28;20447;-51
2022/08/21 11:02:31;;;;;;;5.53;1.60;;;;;;;;;;4973208;28;20405;-49
2022/08/21 11:05:11;;;;;;;3.37;1.77;;;;;;;;;;4973329;28;20399;-49
2022/08/21 11:07:42;;;;;;;1.67;1.37;;;;;;;;;;4973064;28;20408;-50
2022/08/21 11:10:15;;;;;;;4.67;1.60;;;;;;;;;;4972904;28;20444;-49
2022/08/21 11:12:43;;;;;;;2.37;1.30;;;;;;;;;;4973052;28;20405;-51
2022/08/21 11:15:23;;;;;;;6.07;1.80;;;;;;;;;;4973013;28;20429;-51
2022/08/21 11:18:08;;;;;;;5.93;1.30;;;;;;;;;;4973265;28;20491;-49
2022/08/21 11:20:41;;;;;;;2.50;1.50;;;;;;;;;;4972770;28;20396;-49
2022/08/21 11:23:29;;;;;;;1.67;1.17;;;;;;;;;;4972904;28;20401;-49
2022/08/21 11:26:01;;;;;;;2.13;1.40;;;;;;;;;;4975421;28;20399;-50
2022/08/21 11:28:27;;;;;;;1.80;1.30;;;;;;;;;;4976995;28;20788;-50
2022/08/21 11:31:07;;;;;;;6.60;1.60;;;;;;;;;;4981841;28;20926;-50
2022/08/21 11:33:51;;;;;;;3.53;1.47;;;;;;;;;;4995633;28;20184;-50
2022/08/21 11:36:25;;;;;;;3.30;1.43;;;;;;;;;;4996131;28;20400;-50
2022/08/21 11:38:57;;;;;;;3.37;1.50;;;;;;;;;;4995883;28;20424;-48
2022/08/21 11:41:25;;;;;;;3.63;1.50;;;;;;;;;;4996664;28;20423;-48
2022/08/21 11:43:59;;;;;;;2.20;1.37;;;;;;;;;;4996080;28;20443;-50
2022/08/21 11:46:40;;;;;;;6.10;1.30;;;;;;;;;;4996301;28;20400;-52
2022/08/21 11:49:25;;;;;;;3.83;1.40;;;;;;;;;;4995790;28;20434;-49
2022/08/21 11:52:02;;;;;;;2.87;1.40;;;;;;;;;;4996003;28;20445;-49
2022/08/21 11:54:36;;;;;;;4.50;1.40;;;;;;;;;;4996015;28;20400;-50
2022/08/21 11:57:17;;;;;;;1.70;1.20;;;;;;;;;;4995793;28;20447;-50
2022/08/21 11:59:50;;;;;;;3.87;1.50;;;;;;;;;;4994454;28;20443;-49
2022/08/21 12:02:24;;;;;;;3.20;1.30;;;;;;;;;;4976413;28;20408;-49
2022/08/21 12:04:52;;;;;;;2.50;1.40;;;;;;;;;;4977118;28;20447;-51
2022/08/21 12:07:29;;;;;;;2.13;1.40;;;;;;;;;;4976306;28;20885;-52
2022/08/21 12:09:57;;;;;;;2.60;1.30;;;;;;;;;;4975966;28;20424;-52
2022/08/21 12:12:25;;;;;;;2.00;1.33;;;;;;;;;;4976255;28;20440;-52
2022/08/21 12:14:52;;;;;;;2.47;1.50;;;;;;;;;;4976033;28;20405;-52
2022/08/21 12:17:20;;;;;;;3.20;1.30;;;;;;;;;;4976091;28;20832;-51
2022/08/21 12:19:56;;;;;;;1.20;1.07;;;;;;;;;;4975843;28;20428;-52
2022/08/21 12:22:22;;;;;;;1.93;1.40;;;;;;;;;;4976048;28;20408;-52
2022/08/21 12:24:49;;;;;;;2.47;1.27;;;;;;;;;;4988332;28;20408;-52
2022/08/21 12:27:26;;;;;;;1.63;1.20;;;;;;;;;;4995379;28;20419;-51
2022/08/21 12:29:54;;;;;;;2.70;1.43;;;;;;;;;;4995119;28;20443;-52
2022/08/21 12:32:26;;;;;;;5.53;1.47;;;;;;;;;;4991897;28;20435;-52
2022/08/21 12:35:00;;;;;;;3.73;1.10;;;;;;;;;;4993563;28;20418;-53
2022/08/21 12:37:45;;;;;;;2.00;1.40;;;;;;;;;;4995818;28;20454;-54
2022/08/21 12:40:24;;;;;;;2.23;1.50;;;;;;;;;;4994868;28;20887;-53
2022/08/21 12:42:52;;;;;;;3.03;1.43;;;;;;;;;;4994990;28;20505;-54
2022/08/21 12:45:38;;;;;;;1.87;1.37;;;;;;;;;;4994885;28;20396;-55
2022/08/21 12:48:16;;;;;;;2.83;1.03;;;;;;;;;;4994416;28;20447;-53
2022/08/21 12:50:45;;;;;;;2.60;1.00;;;;;;;;;;4994637;28;20408;-55
2022/08/21 12:53:21;;;;;;;2.10;1.23;;;;;;;;;;4994904;28;20404;-53
2022/08/21 12:55:47;;;;;;;1.87;1.40;;;;;;;;;;4995392;28;20931;-54
2022/08/21 12:58:18;;;;;;;2.70;1.40;;;;;;;;;;4994796;28;20482;-55
2022/08/21 13:00:49;;;;;;;1.50;1.07;;;;;;;;;;4993184;28;20432;-55
2022/08/21 13:03:15;;;;;;;2.80;1.60;;;;;;;;;;4994696;28;20396;-55
2022/08/21 13:05:41;;;;;;;2.23;1.43;;;;;;;;;;4994589;28;20400;-56
2022/08/21 13:08:09;;;;;;;2.07;1.10;;;;;;;;;;4995088;28;20407;-48
2022/08/21 13:10:35;;;;;;;1.47;1.37;;;;;;;;;;4994459;28;20483;-49
2022/08/21 13:13:04;;;;;;;2.33;1.10;;;;;;;;;;4995125;28;20397;-51
2022/08/21 13:15:32;;;;;;;3.20;1.23;;;;;;;;;;4994270;28;20756;-52
2022/08/21 13:18:01;;;;;;;1.40;0.87;;;;;;;;;;4994421;28;20499;-51
2022/08/21 13:20:35;;;;;;;3.10;1.20;;;;;;;;;;4994088;28;20411;-51
2022/08/21 13:23:02;;;;;;;3.10;1.20;;;;;;;;;;4994249;28;20455;-51
2022/08/21 13:25:29;;;;;;;2.77;1.10;;;;;;;;;;4994201;28;20400;-52
2022/08/21 13:28:05;;;;;;;2.40;1.20;;;;;;;;;;4994083;28;20404;-52
2022/08/21 13:30:32;;;;;;;2.30;1.07;;;;;;;;;;4993916;28;20403;-52
2022/08/21 13:32:59;;;;;;;1.97;0.97;;;;;;;;;;4991459;28;20439;-51
2022/08/21 13:35:45;;;;;;;1.10;1.00;;;;;;;;;;4993878;28;20779;-51
2022/08/21 13:38:11;;;;;;;2.73;1.13;;;;;;;;;;4993541;28;20459;-52
2022/08/21 13:40:42;;;;;;;4.50;1.10;;;;;;;;;;4993620;28;20430;-51
2022/08/21 13:43:16;;;;;;;1.10;1.00;;;;;;;;;;4993222;28;20401;-52
2022/08/21 13:45:44;;;;;;;3.77;1.37;;;;;;;;;;4986871;28;20813;-51
2022/08/21 13:48:10;;;;;;;4.23;1.20;;;;;;;;;;4993583;28;20416;-51
2022/08/21 13:50:37;;;;;;;2.43;1.20;;;;;;;;;;4993379;28;20411;-51
2022/08/21 13:53:05;;;;;;;2.13;1.07;;;;;;;;;;4993151;28;20563;-52
2022/08/21 13:55:50;;;;;;;1.87;1.20;;;;;;;;;;4992475;28;20773;-51
2022/08/21 13:58:25;;;;;;;1.30;1.20;;;;;;;;;;4993421;28;20459;-52
2022/08/21 14:00:51;;;;;;;2.07;1.17;;;;;;;;;;4991221;28;20442;-52
2022/08/21 14:03:27;;;;;;;1.70;1.20;;;;;;;;;;4992816;28;20400;-52
2022/08/21 14:05:53;;;;;;;1.40;1.20;;;;;;;;;;4993494;28;20480;-51
2022/08/21 14:08:40;;;;;;;6.70;3.23;;;;;;;;;;4993333;28;20432;-51
2022/08/21 14:11:10;;;;;;;2.20;1.20;;;;;;;;;;4993403;28;20396;-51
2022/08/21 14:13:37;;;;;;;1.80;1.20;;;;;;;;;;4993255;28;20400;-51
2022/08/21 14:16:04;;;;;;;1.60;1.00;;;;;;;;;;4993185;28;20419;-51
2022/08/21 14:18:30;;;;;;;1.30;1.20;;;;;;;;;;4985257;28;20496;-52
2022/08/21 14:21:06;;;;;;;2.83;1.33;;;;;;;;;;4991475;28;20416;-52
2022/08/21 14:23:32;;;;;;;3.47;1.10;;;;;;;;;;4993038;28;20399;-53
2022/08/21 14:26:02;;;;;;;2.97;1.10;;;;;;;;;;4992825;28;20407;-51
2022/08/21 14:28:33;;;;;;;3.23;1.27;;;;;;;;;;4990909;28;20428;-54
2022/08/21 14:31:12;;;;;;;1.57;1.07;;;;;;;;;;4990283;28;20851;-51
2022/08/21 14:33:38;;;;;;;2.03;1.00;;;;;;;;;;4992772;28;20435;-51
2022/08/21 14:36:04;;;;;;;2.17;0.90;;;;;;;;;;4992245;28;20494;-52
2022/08/21 14:38:30;;;;;;;2.97;1.20;;;;;;;;;;4992184;28;20902;-51
2022/08/21 14:40:59;;;;;;;1.83;1.23;;;;;;;;;;4992431;28;20963;-53
2022/08/21 14:43:26;;;;;;;2.43;1.20;;;;;;;;;;4992881;28;20747;-52
2022/08/21 14:45:52;;;;;;;1.53;0.93;;;;;;;;;;4992779;28;20400;-52
2022/08/21 14:48:18;;;;;;;1.53;1.10;;;;;;;;;;4992738;28;20404;-52